createdAt,value
2022-08-26T00:01:44.030Z,10.63
2022-08-26T00:05:47.226Z,11.18
2022-08-26T00:09:50.016Z,11.13
2022-08-26T00:13:51.932Z,11.15
2022-08-26T00:17:55.021Z,10.95
2022-08-26T00:21:56.800Z,10.95
2022-08-26T00:25:58.649Z,10.60
2022-08-26T00:30:01.672Z,10.10
2022-08-26T00:34:03.407Z,10.95
2022-08-26T00:38:05.853Z,11.57
2022-08-26T00:42:09.394Z,10.15
2022-08-26T00:46:34.803Z,11.43
2022-08-26T00:50:42.465Z,10.98
2022-08-26T00:54:51.454Z,11.73
2022-08-26T00:58:56.730Z,11.32
2022-08-26T01:03:02.082Z,11.13
2022-08-26T01:07:07.256Z,12.38
2022-08-26T01:11:09.878Z,11.35
2022-08-26T01:15:18.904Z,12.20
2022-08-26T01:19:33.790Z,12.15
2022-08-26T01:23:39.332Z,11.50
2022-08-26T01:27:41.128Z,11.77
2022-08-26T01:31:51.204Z,12.20
2022-08-26T01:35:53.528Z,11.23
2022-08-26T01:39:56.676Z,13.25
2022-08-26T01:44:01.149Z,11.85
2022-08-26T01:48:11.558Z,12.35
2022-08-26T01:52:18.815Z,12.38
2022-08-26T01:56:24.620Z,11.48
2022-08-26T02:00:36.202Z,11.25
2022-08-26T02:04:47.901Z,11.13
2022-08-26T02:08:54.985Z,11.40
2022-08-26T02:12:56.853Z,11.40
2022-08-26T02:16:59.360Z,10.80
2022-08-26T02:21:01.687Z,10.80
2022-08-26T02:25:15.452Z,11.30
2022-08-26T02:29:23.629Z,11.23
2022-08-26T02:33:27.340Z,10.98
2022-08-26T02:37:31.484Z,11.13
2022-08-26T02:41:33.979Z,11.32
2022-08-26T02:45:36.164Z,12.05
2022-08-26T02:49:37.981Z,11.30
2022-08-26T02:53:39.910Z,12.98
2022-08-26T02:57:41.824Z,12.75
2022-08-26T03:01:45.179Z,11.73
2022-08-26T03:05:47.642Z,11.65
2022-08-26T03:09:49.356Z,11.65
2022-08-26T03:13:55.266Z,12.40
2022-08-26T03:17:57.041Z,11.10
2022-08-26T03:21:59.298Z,11.70
2022-08-26T03:26:01.441Z,11.15
2022-08-26T03:30:23.177Z,11.43
2022-08-26T03:34:25.169Z,11.63
2022-08-26T03:38:27.396Z,12.00
2022-08-26T03:42:29.233Z,11.45
2022-08-26T03:46:35.286Z,10.90
2022-08-26T03:50:37.748Z,11.98
2022-08-26T03:54:40.618Z,12.05
2022-08-26T03:58:45.884Z,12.20
2022-08-26T04:02:51.063Z,11.20
2022-08-26T04:06:59.281Z,11.43
2022-08-26T04:11:01.268Z,11.73
2022-08-26T04:15:06.029Z,11.55
2022-08-26T04:19:09.564Z,12.98
2022-08-26T04:23:11.553Z,11.70
2022-08-26T04:27:13.256Z,12.45
2022-08-26T04:31:16.423Z,12.15
2022-08-26T04:35:20.857Z,12.15
2022-08-26T04:39:28.089Z,11.18
2022-08-26T04:43:31.221Z,12.18
2022-08-26T04:47:33.064Z,12.23
2022-08-26T04:51:36.038Z,11.38
2022-08-26T04:55:39.951Z,12.15
2022-08-26T04:59:45.997Z,11.52
2022-08-26T05:03:49.007Z,11.23
2022-08-26T05:07:50.740Z,12.85
2022-08-26T05:11:52.712Z,12.38
2022-08-26T05:15:55.756Z,12.00
2022-08-26T05:20:04.049Z,11.80
2022-08-26T05:24:06.498Z,12.45
2022-08-26T05:28:09.786Z,12.15
2022-08-26T05:32:11.951Z,11.77
2022-08-26T05:36:16.782Z,11.95
2022-08-26T05:40:18.603Z,12.52
2022-08-26T05:44:22.362Z,12.93
2022-08-26T05:48:24.549Z,14.00
2022-08-26T05:52:26.534Z,12.20
2022-08-26T05:56:28.830Z,11.75
2022-08-26T06:00:30.564Z,11.10
2022-08-26T06:04:32.349Z,13.60
2022-08-26T06:08:37.475Z,12.75
2022-08-26T06:12:39.334Z,13.68
2022-08-26T06:16:44.980Z,13.15
2022-08-26T06:20:54.583Z,14.25
2022-08-26T06:25:18.331Z,14.23
2022-08-26T06:29:24.871Z,13.82
2022-08-26T06:33:28.815Z,13.18
2022-08-26T06:37:30.881Z,14.68
2022-08-26T06:41:35.008Z,12.68
2022-08-26T06:45:39.615Z,12.20
2022-08-26T06:49:42.350Z,12.75
2022-08-26T06:53:48.250Z,11.57
2022-08-26T06:57:50.785Z,12.75
2022-08-26T07:01:53.472Z,13.02
2022-08-26T07:06:01.884Z,16.05
2022-08-26T07:10:08.467Z,17.88
2022-08-26T07:14:10.517Z,18.80
2022-08-26T07:18:12.232Z,17.52
2022-08-26T07:22:14.294Z,15.52
2022-08-26T07:26:22.656Z,15.65
2022-08-26T07:30:26.740Z,16.75
2022-08-26T07:34:28.599Z,16.20
2022-08-26T07:38:30.338Z,15.63
2022-08-26T07:42:35.661Z,19.23
2022-08-26T07:46:37.353Z,18.20
2022-08-26T07:50:48.955Z,17.98
2022-08-26T07:54:52.174Z,17.63
2022-08-26T07:58:54.334Z,16.83
2022-08-26T08:02:56.099Z,16.80
2022-08-26T08:06:58.884Z,15.75
2022-08-26T08:11:02.259Z,18.67
2022-08-26T08:15:04.445Z,19.02
2022-08-26T08:19:06.532Z,20.63
2022-08-26T08:23:08.325Z,21.30
2022-08-26T08:27:10.689Z,21.80
2022-08-26T08:31:38.692Z,18.88
2022-08-26T08:35:43.626Z,17.58
2022-08-26T08:39:45.430Z,16.58
2022-08-26T08:43:47.864Z,17.52
2022-08-26T08:47:56.559Z,13.88
2022-08-26T08:52:18.336Z,13.63
2022-08-26T08:56:36.803Z,15.45
2022-08-26T09:00:57.863Z,10.68
2022-08-26T09:05:07.844Z,9.98
2022-08-26T09:09:16.374Z,9.90
2022-08-26T09:13:25.124Z,8.55
2022-08-26T09:17:59.927Z,9.88
2022-08-26T09:22:08.804Z,11.57
2022-08-26T09:26:45.843Z,10.45
2022-08-26T09:31:01.799Z,9.57
2022-08-26T09:35:27.600Z,9.05
2022-08-26T09:39:38.511Z,8.20
2022-08-26T09:43:40.670Z,8.40
2022-08-26T09:47:46.066Z,5.50
2022-08-26T09:51:50.138Z,8.25
2022-08-26T09:56:12.859Z,7.75
2022-08-26T10:00:32.800Z,8.05
2022-08-26T10:04:35.482Z,7.57
2022-08-26T10:08:47.513Z,7.30
2022-08-26T10:12:57.720Z,7.10
2022-08-26T10:17:05.546Z,7.07
2022-08-26T10:21:23.059Z,7.53
2022-08-26T10:25:31.317Z,7.03
2022-08-26T10:29:48.437Z,7.10
2022-08-26T10:33:51.225Z,7.35
2022-08-26T10:38:03.474Z,7.50
2022-08-26T10:42:16.847Z,7.80
2022-08-26T10:46:27.289Z,7.30
2022-08-26T10:50:42.768Z,7.90
2022-08-26T10:55:05.564Z,7.20
2022-08-26T10:59:15.597Z,7.30
2022-08-26T11:03:31.443Z,8.05
2022-08-26T11:07:52.589Z,6.85
2022-08-26T11:11:57.189Z,6.57
2022-08-26T11:15:59.462Z,7.85
2022-08-26T11:20:09.211Z,6.47
2022-08-26T11:24:52.997Z,6.55
2022-08-26T11:28:55.350Z,6.90
2022-08-26T11:32:58.824Z,6.72
2022-08-26T11:37:03.393Z,6.93
2022-08-26T11:41:11.929Z,6.45
2022-08-26T11:45:37.532Z,6.18
2022-08-26T11:49:39.654Z,6.30
2022-08-26T11:53:47.469Z,6.25
2022-08-26T11:57:52.942Z,6.50
2022-08-26T12:01:56.055Z,5.25
2022-08-26T12:05:58.034Z,5.50
2022-08-26T12:10:03.471Z,5.68
2022-08-26T12:14:27.875Z,6.47
2022-08-26T12:18:38.439Z,6.15
2022-08-26T12:22:43.793Z,5.72
2022-08-26T12:26:51.253Z,5.82
2022-08-26T12:31:04.745Z,6.15
2022-08-26T12:35:12.625Z,6.70
2022-08-26T12:39:24.802Z,6.72
2022-08-26T12:43:42.137Z,6.57
2022-08-26T12:47:45.627Z,6.85
2022-08-26T12:51:50.216Z,7.05
2022-08-26T12:55:57.242Z,7.97
2022-08-26T13:00:30.059Z,8.05
2022-08-26T13:04:41.798Z,9.02
2022-08-26T13:08:46.538Z,4.15
2022-08-26T13:12:48.246Z,2.80
2022-08-26T13:16:50.465Z,3.10
2022-08-26T13:20:52.616Z,5.10
2022-08-26T13:24:56.498Z,5.95
2022-08-26T13:29:01.214Z,7.32
2022-08-26T13:33:04.104Z,7.25
2022-08-26T13:37:06.406Z,8.07
2022-08-26T13:41:08.157Z,7.47
2022-08-26T13:45:12.047Z,8.98
2022-08-26T13:49:14.203Z,7.50
2022-08-26T13:53:17.594Z,6.28
2022-08-26T13:57:19.395Z,8.68
2022-08-26T14:01:21.597Z,7.97
2022-08-26T14:05:23.300Z,8.85
2022-08-26T14:09:25.084Z,9.30
2022-08-26T14:13:26.828Z,10.32
2022-08-26T14:17:28.644Z,10.75
2022-08-26T14:21:35.225Z,11.60
2022-08-26T14:25:36.958Z,12.20
2022-08-26T14:29:38.998Z,12.25
2022-08-26T14:33:41.431Z,12.48
2022-08-26T14:37:43.275Z,12.00
2022-08-26T14:41:55.178Z,13.02
2022-08-26T14:45:57.024Z,12.65
2022-08-26T14:49:58.862Z,12.32
2022-08-26T14:54:12.471Z,12.05
2022-08-26T14:58:14.209Z,11.82
2022-08-26T15:02:32.893Z,11.05
2022-08-26T15:06:35.989Z,12.00
2022-08-26T15:10:38.148Z,11.93
2022-08-26T15:14:40.029Z,12.48
2022-08-26T15:18:41.977Z,12.60
2022-08-26T15:22:44.412Z,13.07
2022-08-26T15:26:46.714Z,14.15
2022-08-26T15:30:48.641Z,13.70
2022-08-26T15:34:52.986Z,14.75
2022-08-26T15:38:55.104Z,14.98
2022-08-26T15:43:11.376Z,13.27
2022-08-26T15:47:20.242Z,14.02
2022-08-26T15:51:27.968Z,14.07
2022-08-26T15:55:29.745Z,13.13
2022-08-26T15:59:31.608Z,12.93
2022-08-26T16:03:33.346Z,14.35
2022-08-26T16:07:35.372Z,13.90
2022-08-26T16:11:38.230Z,13.70
2022-08-26T16:15:40.004Z,13.45
2022-08-26T16:19:41.778Z,14.20
2022-08-26T16:23:45.369Z,14.98
2022-08-26T16:27:47.354Z,14.27
2022-08-26T16:31:53.151Z,11.55
2022-08-26T16:35:55.202Z,11.57
2022-08-26T16:39:57.020Z,12.23
2022-08-26T16:43:59.050Z,11.90
2022-08-26T16:48:00.781Z,12.52
2022-08-26T16:52:02.727Z,11.45
2022-08-26T16:56:04.825Z,11.02
2022-08-26T17:00:19.667Z,11.68
2022-08-26T17:04:21.907Z,11.00
2022-08-26T17:08:28.465Z,13.00
2022-08-26T17:12:31.389Z,11.40
2022-08-26T17:16:33.328Z,10.93
2022-08-26T17:20:35.234Z,13.27
2022-08-26T17:24:37.361Z,13.77
2022-08-26T17:28:40.146Z,6.88
2022-08-26T17:32:42.392Z,6.10
2022-08-26T17:36:44.153Z,5.25
2022-08-26T17:40:45.905Z,5.80
2022-08-26T17:44:48.643Z,6.90
2022-08-26T17:48:50.428Z,5.03
2022-08-26T17:52:52.150Z,6.05
2022-08-26T17:56:53.875Z,4.55
2022-08-26T18:00:56.201Z,5.53
2022-08-26T18:04:58.122Z,5.15
2022-08-26T18:09:00.920Z,6.20
2022-08-26T18:13:02.720Z,5.68
2022-08-26T18:17:04.953Z,5.25
2022-08-26T18:21:19.026Z,5.88
2022-08-26T18:25:20.883Z,5.03
2022-08-26T18:29:25.282Z,5.57
2022-08-26T18:33:27.000Z,5.93
2022-08-26T18:37:31.549Z,5.10
2022-08-26T18:41:39.049Z,6.50
2022-08-26T18:45:40.926Z,6.90
2022-08-26T18:49:42.724Z,7.03
2022-08-26T18:53:44.578Z,6.93
2022-08-26T18:57:46.346Z,6.57
2022-08-26T19:01:50.521Z,6.80
2022-08-26T19:05:52.426Z,6.80
2022-08-26T19:09:54.261Z,6.47
2022-08-26T19:13:56.042Z,6.15
2022-08-26T19:17:58.699Z,7.07
2022-08-26T19:22:01.376Z,6.72
2022-08-26T19:26:05.117Z,7.97
2022-08-26T19:30:07.705Z,8.15
2022-08-26T19:34:10.167Z,8.75
2022-08-26T19:38:11.993Z,8.85
2022-08-26T19:42:13.888Z,8.73
2022-08-26T19:46:18.693Z,8.93
2022-08-26T19:50:21.551Z,8.18
2022-08-26T19:54:23.578Z,8.07
2022-08-26T19:58:25.286Z,7.80
2022-08-26T20:02:28.345Z,7.45
2022-08-26T20:06:30.140Z,8.10
2022-08-26T20:10:31.877Z,7.50
2022-08-26T20:14:35.176Z,8.05
2022-08-26T20:18:55.434Z,7.40
2022-08-26T20:22:57.233Z,6.38
2022-08-26T20:26:59.072Z,6.07
2022-08-26T20:31:01.977Z,6.47
2022-08-26T20:35:07.145Z,7.28
2022-08-26T20:39:10.691Z,4.47
2022-08-26T20:43:12.482Z,4.00
2022-08-26T20:47:14.222Z,4.38
2022-08-26T20:51:17.719Z,4.20
2022-08-26T20:55:20.321Z,4.20
2022-08-26T20:59:22.133Z,3.53
2022-08-26T21:03:24.237Z,3.65
2022-08-26T21:07:26.331Z,3.97
2022-08-26T21:11:29.123Z,4.47
2022-08-26T21:15:31.818Z,3.70
2022-08-26T21:19:33.609Z,3.55
2022-08-26T21:23:36.382Z,3.10
2022-08-26T21:27:38.682Z,4.32
2022-08-26T21:31:45.705Z,4.40
2022-08-26T21:35:55.455Z,4.32
2022-08-26T21:39:58.892Z,4.60
2022-08-26T21:44:00.626Z,4.95
2022-08-26T21:48:02.626Z,4.75
2022-08-26T21:52:04.668Z,4.95
2022-08-26T21:56:09.598Z,5.22
2022-08-26T22:00:14.828Z,4.97
2022-08-26T22:04:17.184Z,5.30
2022-08-26T22:08:20.582Z,5.22
2022-08-26T22:12:22.382Z,5.10
2022-08-26T22:16:26.853Z,5.32
2022-08-26T22:20:29.005Z,5.63
2022-08-26T22:24:31.038Z,5.63
2022-08-26T22:28:32.893Z,5.53
2022-08-26T22:32:34.712Z,6.30
2022-08-26T22:36:43.597Z,5.85
2022-08-26T22:40:51.267Z,5.13
2022-08-26T22:44:53.132Z,6.15
2022-08-26T22:48:54.906Z,5.65
2022-08-26T22:52:56.770Z,5.90
2022-08-26T22:56:58.778Z,5.80
2022-08-26T23:01:00.923Z,6.55
2022-08-26T23:05:02.640Z,6.00
2022-08-26T23:09:05.761Z,6.18
2022-08-26T23:13:08.190Z,5.93
2022-08-26T23:17:11.967Z,5.28
2022-08-26T23:21:13.761Z,5.75
2022-08-26T23:25:15.515Z,5.78
2022-08-26T23:29:17.912Z,5.47
2022-08-26T23:33:20.342Z,5.53
2022-08-26T23:37:27.665Z,5.95
2022-08-26T23:41:30.506Z,5.68
2022-08-26T23:45:33.003Z,6.43
2022-08-26T23:49:35.959Z,6.30
2022-08-26T23:53:37.683Z,6.55
2022-08-26T23:57:39.792Z,6.82
